Time;durP1;ratioP1;P1;durP2;ratioP2;P2;SDS_P1;SDS_P2;PMS_P1;PMS_P2;Temp;Humidity;BMP_temperature;BMP_pressure;BME280_temperature;BME280_humidity;BME280_pressure;Samples;Min_cycle;Max_cycle;Signal;HPM_P1;HPM_P2
2022/05/07 00:01:38;;;;;;;;;;;12.90;88.90;;;;;;5052974;28;20015;-76
2022/05/07 00:04:04;;;;;;;;;;;12.80;89.00;;;;;;5055632;28;19918;-76
2022/05/07 00:06:29;;;;;;;;;;;12.90;89.10;;;;;;5073590;28;20282;-75
2022/05/07 00:08:55;;;;;;;;;;;12.90;89.10;;;;;;5073554;28;19948;-75
2022/05/07 00:11:21;;;;;;;;;;;13.00;89.00;;;;;;5073274;28;20337;-76
2022/05/07 00:13:47;;;;;;;;;;;13.10;89.00;;;;;;5091445;28;20298;-76
2022/05/07 00:18:57;;;;;;;;;;;13.30;89.00;;;;;;5091776;28;19966;-75
2022/05/07 00:21:23;;;;;;;;;;;13.40;89.00;;;;;;5073138;28;20362;-73
2022/05/07 00:23:48;;;;;;;;;;;13.50;88.90;;;;;;5072907;28;19908;-76
2022/05/07 00:26:14;;;;;;;;;;;13.50;88.80;;;;;;5091438;28;19943;-75
2022/05/07 00:28:40;;;;;;;;;;;13.50;88.80;;;;;;5091436;28;19958;-74
2022/05/07 00:31:05;;;;;;;;;;;13.60;88.90;;;;;;5056463;28;19958;-74
2022/05/07 00:33:31;;;;;;;;;;;13.60;88.90;;;;;;5073122;28;20412;-75
2022/05/07 00:35:56;;;;;;;;;;;13.60;88.90;;;;;;5073052;28;19913;-74
2022/05/07 00:38:22;;;;;;;;;;;13.70;89.00;;;;;;5072770;28;19923;-73
2022/05/07 00:40:48;;;;;;;;;;;13.70;89.00;;;;;;5073038;28;19953;-73
2022/05/07 00:43:15;;;;;;;;;;;13.70;89.00;;;;;;5072594;28;19920;-76
2022/05/07 00:45:47;;;;;;;;;;;13.80;88.90;;;;;;5090955;28;19920;-75
2022/05/07 00:48:14;;;;;;;;;;;13.80;88.80;;;;;;5072803;28;20288;-75
2022/05/07 00:53:24;;;;;;;;;;;13.70;88.60;;;;;;5090943;28;19919;-75
2022/05/07 00:55:50;;;;;;;;;;;13.60;88.50;;;;;;5090777;28;19908;-76
2022/05/07 00:58:16;;;;;;;;;;;13.40;88.40;;;;;;5072599;28;19912;-76
2022/05/07 01:00:44;;;;;;;;;;;13.30;88.50;;;;;;5090506;28;19915;-64
2022/05/07 01:03:10;;;;;;;;;;;13.20;88.50;;;;;;5090699;28;19908;-75
2022/05/07 01:05:36;;;;;;;;;;;13.10;88.70;;;;;;5072912;28;19915;-76
2022/05/07 01:08:02;;;;;;;;;;;13.00;88.70;;;;;;5072624;28;19908;-75
2022/05/07 01:10:28;;;;;;;;;;;12.90;88.80;;;;;;5090538;28;19912;-76
2022/05/07 01:12:54;;;;;;;;;;;12.80;88.80;;;;;;5072432;28;19955;-74
2022/05/07 01:15:20;;;;;;;;;;;12.80;88.90;;;;;;5090460;28;19947;-74
2022/05/07 01:17:45;;;;;;;;;;;12.80;89.00;;;;;;5090589;28;20365;-74
2022/05/07 01:20:12;;;;;;;;;;;12.80;89.00;;;;;;5072375;28;19931;-74
2022/05/07 01:22:38;;;;;;;;;;;12.80;89.00;;;;;;5090243;28;20004;-74
2022/05/07 01:25:04;;;;;;;;;;;12.80;88.90;;;;;;5090357;28;20019;-74
2022/05/07 01:27:30;;;;;;;;;;;12.80;88.80;;;;;;5090327;28;19912;-75
2022/05/07 01:29:56;;;;;;;;;;;12.80;88.70;;;;;;5072173;28;19922;-74
2022/05/07 01:32:22;;;;;;;;;;;12.70;88.60;;;;;;5071987;28;19912;-74
2022/05/07 01:34:47;;;;;;;;;;;12.70;88.70;;;;;;5090034;28;19912;-75
2022/05/07 01:37:13;;;;;;;;;;;12.60;88.70;;;;;;5071916;28;20282;-74
2022/05/07 01:39:39;;;;;;;;;;;12.50;88.80;;;;;;5054982;28;19962;-75
2022/05/07 01:42:04;;;;;;;;;;;12.50;89.00;;;;;;5071256;28;19926;-75
2022/05/07 01:44:30;;;;;;;;;;;12.40;89.20;;;;;;5070938;28;19916;-73
2022/05/07 01:49:40;;;;;;;;;;;12.20;89.40;;;;;;5089170;28;19966;-75
2022/05/07 01:52:05;;;;;;;;;;;12.20;89.30;;;;;;5088666;28;19948;-74
2022/05/07 01:54:31;;;;;;;;;;;12.20;89.30;;;;;;5089196;28;19908;-74
2022/05/07 01:56:57;;;;;;;;;;;12.10;89.40;;;;;;5088754;28;19916;-75
2022/05/07 01:59:22;;;;;;;;;;;12.10;89.40;;;;;;5088978;28;19970;-74
2022/05/07 02:01:48;;;;;;;;;;;12.10;89.40;;;;;;5070439;28;19915;-75
2022/05/07 02:04:13;;;;;;;;;;;12.00;89.50;;;;;;5088629;28;20392;-73
2022/05/07 02:06:39;;;;;;;;;;;12.00;89.50;;;;;;5088379;28;20281;-73
2022/05/07 02:09:04;;;;;;;;;;;11.90;89.40;;;;;;5088243;28;19912;-74
2022/05/07 02:11:30;;;;;;;;;;;11.90;89.40;;;;;;5070212;28;19970;-73
2022/05/07 02:13:55;;;;;;;;;;;11.90;89.50;;;;;;5088145;28;20366;-74
2022/05/07 02:16:21;;;;;;;;;;;11.80;89.40;;;;;;5088354;28;19912;-74
2022/05/07 02:18:46;;;;;;;;;;;11.80;89.50;;;;;;5070208;28;19973;-74
2022/05/07 02:21:12;;;;;;;;;;;11.80;89.60;;;;;;5088296;28;19908;-73
2022/05/07 02:23:38;;;;;;;;;;;11.70;89.70;;;;;;5088298;28;20004;-75
2022/05/07 02:26:03;;;;;;;;;;;11.70;89.70;;;;;;5087644;28;19916;-75
2022/05/07 02:28:29;;;;;;;;;;;11.70;89.70;;;;;;5088376;28;19912;-74
2022/05/07 02:30:54;;;;;;;;;;;11.60;89.60;;;;;;5088024;28;19920;-75
2022/05/07 02:33:20;;;;;;;;;;;11.60;89.60;;;;;;5069994;28;19908;-74
2022/05/07 02:35:46;;;;;;;;;;;11.60;89.60;;;;;;5087966;28;19919;-73
2022/05/07 02:38:11;;;;;;;;;;;11.60;89.60;;;;;;5069646;28;20408;-75
2022/05/07 02:43:21;;;;;;;;;;;11.50;89.50;;;;;;5009900;28;2213163;-74
2022/05/07 02:45:47;;;;;;;;;;;11.50;89.60;;;;;;5070354;28;20011;-75
2022/05/07 02:48:12;;;;;;;;;;;11.50;89.50;;;;;;5053848;28;20376;-74
2022/05/07 02:50:38;;;;;;;;;;;11.50;89.40;;;;;;5070418;28;19942;-75
2022/05/07 02:53:03;;;;;;;;;;;11.50;89.40;;;;;;5070413;28;19944;-75
2022/05/07 02:55:29;;;;;;;;;;;11.50;89.50;;;;;;5088297;28;20388;-75
2022/05/07 02:57:54;;;;;;;;;;;11.50;89.50;;;;;;5070270;28;20006;-76
2022/05/07 03:00:20;;;;;;;;;;;11.40;89.60;;;;;;5088068;28;19915;-75
2022/05/07 03:02:47;;;;;;;;;;;11.40;89.60;;;;;;5088266;28;20339;-75
2022/05/07 03:05:12;;;;;;;;;;;11.40;89.60;;;;;;5053305;28;20049;-75
2022/05/07 03:07:38;;;;;;;;;;;11.40;89.60;;;;;;5088073;28;20018;-75
2022/05/07 03:10:03;;;;;;;;;;;11.50;89.70;;;;;;5069531;28;19919;-75
2022/05/07 03:12:29;;;;;;;;;;;11.50;89.80;;;;;;5087654;28;20286;-74
2022/05/07 03:14:55;;;;;;;;;;;11.60;89.70;;;;;;5087371;28;19939;-74
2022/05/07 03:17:20;;;;;;;;;;;11.70;89.60;;;;;;5068421;28;19935;-74
2022/05/07 03:19:46;;;;;;;;;;;11.80;89.70;;;;;;5068990;28;19912;-74
2022/05/07 03:22:11;;;;;;;;;;;11.90;89.70;;;;;;5087630;28;19912;-75
2022/05/07 03:24:38;;;;;;;;;;;12.00;89.70;;;;;;5069704;28;19912;-75
2022/05/07 03:27:04;;;;;;;;;;;12.10;90.00;;;;;;5069876;28;19958;-76
2022/05/07 03:29:30;;;;;;;;;;;12.10;89.50;;;;;;5087691;28;19908;-75
2022/05/07 03:31:56;;;;;;;;;;;12.20;89.50;;;;;;5087887;28;19912;-76
2022/05/07 03:34:21;;;;;;;;;;;12.20;89.50;;;;;;5087726;28;19908;-75
2022/05/07 03:36:47;;;;;;;;;;;12.30;89.40;;;;;;5087355;28;19954;-75
2022/05/07 03:39:13;;;;;;;;;;;12.30;89.40;;;;;;5090571;28;19908;-75
2022/05/07 03:41:39;;;;;;;;;;;12.30;89.40;;;;;;5091841;28;19917;-75
2022/05/07 03:44:04;;;;;;;;;;;12.40;89.40;;;;;;5073357;28;20313;-75
2022/05/07 03:46:30;;;;;;;;;;;12.40;89.50;;;;;;5073681;28;20366;-76
2022/05/07 03:48:55;;;;;;;;;;;12.50;89.50;;;;;;5091706;28;19913;-76
2022/05/07 03:51:22;;;;;;;;;;;12.40;89.30;;;;;;5091556;28;19968;-75
2022/05/07 03:53:47;;;;;;;;;;;12.50;89.30;;;;;;5073385;28;19963;-75
2022/05/07 03:56:13;;;;;;;;;;;12.50;89.30;;;;;;5057020;28;19947;-76
2022/05/07 03:58:39;;;;;;;;;;;12.50;89.20;;;;;;5073074;28;19923;-76
2022/05/07 04:01:04;;;;;;;;;;;12.60;89.30;;;;;;5091206;28;19912;-75
2022/05/07 04:03:30;;;;;;;;;;;12.60;89.30;;;;;;5072866;28;19971;-75
2022/05/07 04:05:56;;;;;;;;;;;12.60;89.20;;;;;;5091407;28;20007;-75
2022/05/07 04:08:23;;;;;;;;;;;12.60;89.20;;;;;;5073077;28;20312;-75
2022/05/07 04:10:49;;;;;;;;;;;12.60;89.20;;;;;;5091147;28;19911;-75
2022/05/07 04:13:17;;;;;;;;;;;12.60;89.30;;;;;;5091481;28;19958;-75
2022/05/07 04:15:43;;;;;;;;;;;12.60;89.20;;;;;;5072772;28;19927;-75
2022/05/07 04:18:09;;;;;;;;;;;12.60;89.30;;;;;;5073260;28;19999;-74
2022/05/07 04:20:35;;;;;;;;;;;12.60;89.30;;;;;;5091629;28;20431;-76
2022/05/07 04:23:01;;;;;;;;;;;12.60;89.20;;;;;;5056404;28;19956;-75
2022/05/07 04:25:26;;;;;;;;;;;12.60;89.10;;;;;;5090766;28;19912;-75
2022/05/07 04:27:53;;;;;;;;;;;12.60;89.20;;;;;;5072800;28;19908;-75
2022/05/07 04:30:22;;;;;;;;;;;12.60;89.40;;;;;;5091118;28;19927;-75
2022/05/07 04:32:48;;;;;;;;;;;12.50;89.30;;;;;;5090881;28;19915;-76
2022/05/07 04:35:14;;;;;;;;;;;12.50;89.30;;;;;;5072607;28;19912;-75
2022/05/07 04:37:39;;;;;;;;;;;12.50;89.30;;;;;;5090814;28;19913;-75
2022/05/07 04:40:05;;;;;;;;;;;12.50;89.40;;;;;;5090744;28;19912;-75
2022/05/07 04:42:31;;;;;;;;;;;12.50;89.50;;;;;;5089908;28;19966;-75
2022/05/07 04:44:56;;;;;;;;;;;12.40;89.50;;;;;;5090409;28;19979;-74
2022/05/07 04:47:22;;;;;;;;;;;12.40;89.50;;;;;;5090572;28;19908;-75
2022/05/07 04:49:48;;;;;;;;;;;12.40;89.60;;;;;;5071806;28;19908;-74
2022/05/07 04:52:13;;;;;;;;;;;12.30;89.70;;;;;;5072107;28;20008;-75
2022/05/07 04:54:39;;;;;;;;;;;12.30;89.70;;;;;;5055905;28;19916;-75
2022/05/07 04:57:04;;;;;;;;;;;12.30;89.80;;;;;;5090497;28;19919;-74
2022/05/07 04:59:30;;;;;;;;;;;12.30;89.80;;;;;;5072410;28;19973;-74
2022/05/07 05:01:56;;;;;;;;;;;12.30;89.90;;;;;;5055815;28;19999;-73
2022/05/07 05:04:21;;;;;;;;;;;12.20;89.90;;;;;;5072582;28;19965;-74
2022/05/07 05:06:47;;;;;;;;;;;12.20;89.90;;;;;;5090947;28;20381;-74
2022/05/07 05:09:12;;;;;;;;;;;12.20;89.90;;;;;;5055756;28;20217;-73
2022/05/07 05:11:38;;;;;;;;;;;12.20;89.90;;;;;;5072178;28;19919;-73
2022/05/07 05:15:01;;;;;;;;;;;12.20;89.90;;;;;;5090419;28;19933;-74
2022/05/07 05:16:50;;;;;;;;;;;12.20;89.90;;;;;;5090342;28;19908;-73
2022/05/07 05:19:16;;;;;;;;;;;12.20;90.00;;;;;;5072088;28;19908;-76
2022/05/07 05:21:41;;;;;;;;;;;12.20;90.00;;;;;;5090548;28;19915;-72
2022/05/07 05:24:07;;;;;;;;;;;12.20;89.90;;;;;;5071956;28;19908;-74
2022/05/07 05:26:33;;;;;;;;;;;12.20;89.90;;;;;;5090375;28;19947;-75
2022/05/07 05:28:59;;;;;;;;;;;12.10;89.90;;;;;;5071841;28;19962;-75
2022/05/07 05:31:24;;;;;;;;;;;12.20;90.00;;;;;;5055326;28;19931;-76
2022/05/07 05:33:50;;;;;;;;;;;12.20;90.00;;;;;;5089872;28;19969;-76
2022/05/07 05:36:15;;;;;;;;;;;12.20;90.00;;;;;;5090150;28;19915;-75
2022/05/07 05:38:41;;;;;;;;;;;12.20;90.00;;;;;;5071966;28;19908;-76
2022/05/07 05:41:07;;;;;;;;;;;12.20;90.00;;;;;;5071827;28;19912;-76
2022/05/07 05:43:32;;;;;;;;;;;12.20;90.00;;;;;;5068344;28;19924;-76
2022/05/07 05:45:58;;;;;;;;;;;12.20;90.10;;;;;;5068763;28;20011;-74
2022/05/07 05:48:27;;;;;;;;;;;12.20;90.10;;;;;;5068812;28;20390;-74
2022/05/07 05:50:52;;;;;;;;;;;12.30;90.10;;;;;;5068329;28;19924;-74
2022/05/07 05:53:18;;;;;;;;;;;12.30;90.10;;;;;;5069581;28;19957;-74
2022/05/07 05:55:43;;;;;;;;;;;12.30;90.10;;;;;;5051758;28;19917;-74
2022/05/07 05:58:09;;;;;;;;;;;12.40;90.10;;;;;;5069910;28;19913;-75
2022/05/07 06:00:34;;;;;;;;;;;12.40;90.10;;;;;;5068485;28;19921;-74
2022/05/07 06:03:00;;;;;;;;;;;12.40;90.10;;;;;;5067950;28;20206;-74
2022/05/07 06:05:25;;;;;;;;;;;12.50;90.10;;;;;;5069380;28;19908;-74
2022/05/07 06:07:51;;;;;;;;;;;12.50;90.10;;;;;;5069596;28;19940;-76
2022/05/07 06:10:17;;;;;;;;;;;12.50;90.10;;;;;;5069262;28;20326;-75
2022/05/07 06:12:43;;;;;;;;;;;12.50;90.10;;;;;;5069294;28;19927;-74
2022/05/07 06:15:10;;;;;;;;;;;12.50;90.10;;;;;;5051275;28;20278;-74
2022/05/07 06:17:36;;;;;;;;;;;12.60;90.10;;;;;;5067817;28;19913;-74
2022/05/07 06:20:02;;;;;;;;;;;12.60;90.00;;;;;;5069190;28;19919;-74
2022/05/07 06:22:27;;;;;;;;;;;12.60;90.10;;;;;;5050926;28;19920;-74
2022/05/07 06:27:37;;;;;;;;;;;12.60;90.10;;;;;;5067990;28;19973;-74
2022/05/07 06:30:04;;;;;;;;;;;12.60;90.20;;;;;;5067279;28;20374;-74
2022/05/07 06:32:31;;;;;;;;;;;12.70;90.30;;;;;;5068621;28;19915;-73
2022/05/07 06:34:57;;;;;;;;;;;12.80;90.30;;;;;;5067090;28;19920;-73
2022/05/07 06:37:22;;;;;;;;;;;12.90;90.30;;;;;;5067330;28;19913;-76
2022/05/07 06:39:48;;;;;;;;;;;13.10;90.30;;;;;;5068703;28;19954;-75
2022/05/07 06:42:15;;;;;;;;;;;13.20;90.20;;;;;;5050386;28;19932;-73
2022/05/07 06:44:41;;;;;;;;;;;13.40;90.20;;;;;;5068344;28;20366;-73
2022/05/07 06:47:07;;;;;;;;;;;13.60;90.30;;;;;;5067214;28;19965;-74
2022/05/07 06:49:32;;;;;;;;;;;13.70;90.30;;;;;;5068530;28;19920;-75
2022/05/07 06:51:58;;;;;;;;;;;13.90;90.20;;;;;;5066585;28;20065;-74
2022/05/07 06:54:23;;;;;;;;;;;14.10;90.20;;;;;;5068145;28;19908;-75
2022/05/07 06:56:49;;;;;;;;;;;14.30;90.10;;;;;;5067923;28;19912;-75
2022/05/07 06:59:15;;;;;;;;;;;14.40;90.00;;;;;;5049954;28;19963;-73
2022/05/07 07:01:41;;;;;;;;;;;14.50;89.90;;;;;;5068118;28;19909;-74
2022/05/07 07:04:06;;;;;;;;;;;14.50;89.70;;;;;;5066814;28;19923;-76
2022/05/07 07:06:32;;;;;;;;;;;14.50;89.50;;;;;;5068193;28;19909;-75
2022/05/07 07:08:57;;;;;;;;;;;14.50;89.40;;;;;;5067965;28;19944;-75
2022/05/07 07:11:24;;;;;;;;;;;14.40;89.30;;;;;;5067652;28;19966;-76
2022/05/07 07:13:51;;;;;;;;;;;14.30;89.30;;;;;;5067904;28;19920;-75
2022/05/07 07:16:16;;;;;;;;;;;14.20;89.30;;;;;;5066523;28;19951;-75
2022/05/07 07:18:42;;;;;;;;;;;14.20;89.40;;;;;;5066558;28;19951;-75
2022/05/07 07:21:09;;;;;;;;;;;14.10;89.50;;;;;;5068902;28;19920;-75
2022/05/07 07:23:34;;;;;;;;;;;14.10;89.70;;;;;;5067933;28;19913;-74
2022/05/07 07:26:00;;;;;;;;;;;14.20;89.80;;;;;;5067980;28;20015;-75
2022/05/07 07:28:25;;;;;;;;;;;14.30;89.90;;;;;;5066456;28;19912;-75
2022/05/07 07:30:51;;;;;;;;;;;14.40;89.90;;;;;;5067779;28;20370;-76
2022/05/07 07:33:17;;;;;;;;;;;14.50;89.80;;;;;;5066439;28;19919;-74
2022/05/07 07:35:45;;;;;;;;;;;14.50;89.90;;;;;;5066384;28;19916;-75
2022/05/07 07:38:11;;;;;;;;;;;14.50;89.90;;;;;;5065849;28;20225;-75
2022/05/07 07:40:37;;;;;;;;;;;14.50;89.50;;;;;;5067197;28;19912;-75
2022/05/07 07:43:02;;;;;;;;;;;14.30;89.60;;;;;;5078629;28;19924;-74
2022/05/07 07:48:13;;;;;;;;;;;14.30;90.20;;;;;;5088098;28;19958;-75
2022/05/07 07:50:38;;;;;;;;;;;14.50;90.20;;;;;;5052776;28;19963;-75
2022/05/07 07:53:05;;;;;;;;;;;14.60;90.10;;;;;;5087193;28;19923;-75
2022/05/07 07:55:31;;;;;;;;;;;14.60;90.00;;;;;;5052990;28;19916;-76
2022/05/07 07:57:57;;;;;;;;;;;14.60;90.10;;;;;;5069275;28;20391;-75
2022/05/07 08:00:24;;;;;;;;;;;14.70;90.20;;;;;;5087081;28;19916;-75
2022/05/07 08:02:50;;;;;;;;;;;14.80;90.10;;;;;;5069696;28;20038;-75
2022/05/07 08:05:17;;;;;;;;;;;14.90;90.10;;;;;;5069410;28;19966;-76
2022/05/07 08:13:12;;;;;;;;;;;15.40;90.00;;;;;;5087711;28;20397;-75
2022/05/07 08:15:38;;;;;;;;;;;15.60;90.10;;;;;;5087139;28;19912;-71
2022/05/07 08:18:05;;;;;;;;;;;15.70;90.00;;;;;;5086471;28;19916;-71
2022/05/07 08:20:30;;;;;;;;;;;15.90;89.60;;;;;;5086920;28;19908;-70
2022/05/07 08:22:56;;;;;;;;;;;15.90;89.40;;;;;;5087128;28;19935;-74
2022/05/07 08:25:22;;;;;;;;;;;16.00;89.40;;;;;;5090300;28;19908;-75
2022/05/07 08:27:48;;;;;;;;;;;16.10;89.50;;;;;;5090844;28;20470;-74
2022/05/07 08:30:13;;;;;;;;;;;16.20;89.70;;;;;;5091037;28;19916;-75
2022/05/07 08:32:39;;;;;;;;;;;16.20;89.60;;;;;;5091007;28;19912;-75
2022/05/07 08:35:05;;;;;;;;;;;16.30;89.50;;;;;;5056225;28;19954;-76
2022/05/07 08:37:30;;;;;;;;;;;16.30;89.40;;;;;;5090977;28;19993;-75
2022/05/07 08:40:01;;;;;;;;;;;16.30;89.80;;;;;;5090691;28;19942;-75
2022/05/07 08:42:36;;;;;;;;;;;16.20;90.00;;;;;;5090493;28;19924;-75
2022/05/07 08:45:02;;;;;;;;;;;16.30;90.20;;;;;;5073469;28;19919;-74
2022/05/07 08:47:28;;;;;;;;;;;16.30;90.20;;;;;;5090665;28;19941;-75
2022/05/07 08:49:54;;;;;;;;;;;16.60;90.30;;;;;;5072810;28;20417;-75
2022/05/07 08:52:20;;;;;;;;;;;16.80;90.10;;;;;;5073028;28;19934;-75
2022/05/07 08:54:46;;;;;;;;;;;17.10;89.70;;;;;;5074724;28;19916;-74
2022/05/07 08:57:12;;;;;;;;;;;17.30;89.10;;;;;;5072199;28;19927;-75
2022/05/07 08:59:38;;;;;;;;;;;17.40;88.90;;;;;;5090310;28;20525;-75
2022/05/07 09:02:04;;;;;;;;;;;17.30;88.20;;;;;;5090108;28;19912;-75
2022/05/07 09:04:29;;;;;;;;;;;17.20;87.90;;;;;;5090519;28;19908;-74
2022/05/07 09:06:57;;;;;;;;;;;17.10;88.10;;;;;;5090317;28;19908;-75
2022/05/07 09:09:23;;;;;;;;;;;17.10;88.40;;;;;;5091622;28;19916;-77
2022/05/07 09:11:48;;;;;;;;;;;17.20;88.50;;;;;;5060033;28;19936;-75
2022/05/07 09:14:18;;;;;;;;;;;17.20;88.40;;;;;;5094691;28;19986;-75
2022/05/07 09:16:46;;;;;;;;;;;17.20;88.50;;;;;;5060887;28;19931;-76
2022/05/07 09:19:27;;;;;;;;;;;17.30;88.70;;;;;;5077306;28;19908;-75
2022/05/07 09:22:05;;;;;;;;;;;17.30;88.70;;;;;;5094757;28;19908;-75
2022/05/07 09:24:31;;;;;;;;;;;17.40;88.50;;;;;;5075425;28;19912;-75
2022/05/07 09:26:57;;;;;;;;;;;17.40;88.10;;;;;;5058993;28;19957;-75
2022/05/07 09:29:26;;;;;;;;;;;17.40;87.70;;;;;;5076381;28;20319;-74
2022/05/07 09:32:08;;;;;;;;;;;17.40;87.60;;;;;;5093154;28;19973;-76
2022/05/07 09:37:32;;;;;;;;;;;17.20;87.60;;;;;;5092246;28;19968;-74
2022/05/07 09:40:01;;;;;;;;;;;17.00;88.20;;;;;;5094224;28;19908;-76
2022/05/07 09:42:30;;;;;;;;;;;16.90;88.30;;;;;;5092627;28;19921;-76
2022/05/07 09:44:56;;;;;;;;;;;17.00;88.40;;;;;;5074735;28;20290;-75
2022/05/07 09:47:22;;;;;;;;;;;17.10;88.30;;;;;;5093844;28;19908;-77
2022/05/07 09:52:32;;;;;;;;;;;17.30;88.10;;;;;;5092946;28;19934;-78
2022/05/07 09:57:42;;;;;;;;;;;17.40;87.70;;;;;;5093383;28;20312;-74
2022/05/07 10:00:11;;;;;;;;;;;17.60;87.80;;;;;;5074298;28;19912;-76
2022/05/07 10:02:56;;;;;;;;;;;17.80;88.00;;;;;;5073610;28;19911;-75
2022/05/07 10:05:21;;;;;;;;;;;17.90;87.50;;;;;;5073183;28;19919;-75
2022/05/07 10:08:05;;;;;;;;;;;17.90;87.90;;;;;;5091377;28;19961;-75
2022/05/07 10:10:35;;;;;;;;;;;18.00;87.50;;;;;;5089942;28;19912;-74
2022/05/07 10:13:02;;;;;;;;;;;18.00;87.30;;;;;;5073127;28;20361;-74
2022/05/07 10:15:28;;;;;;;;;;;17.80;87.40;;;;;;5074156;28;20019;-75
2022/05/07 10:18:01;;;;;;;;;;;17.60;88.00;;;;;;5091252;28;20341;-76
2022/05/07 10:20:33;;;;;;;;;;;17.60;88.20;;;;;;5091120;28;19999;-75
2022/05/07 10:22:58;;;;;;;;;;;17.60;88.50;;;;;;5092528;28;20344;-75
2022/05/07 10:25:24;;;;;;;;;;;17.70;88.20;;;;;;5091581;28;20116;-74
2022/05/07 10:27:49;;;;;;;;;;;17.80;87.90;;;;;;5073941;28;20389;-76
2022/05/07 10:30:16;;;;;;;;;;;17.90;87.50;;;;;;5072235;28;19918;-74
2022/05/07 10:32:46;;;;;;;;;;;17.90;87.40;;;;;;5071237;28;20007;-76
2022/05/07 10:35:14;;;;;;;;;;;17.90;87.40;;;;;;5091236;28;20369;-75
2022/05/07 10:37:40;;;;;;;;;;;17.90;87.40;;;;;;5055669;28;19912;-75
2022/05/07 10:40:10;;;;;;;;;;;18.20;87.50;;;;;;5090710;28;20013;-74
2022/05/07 10:42:39;;;;;;;;;;;18.50;87.60;;;;;;5090680;28;20038;-76
2022/05/07 10:45:25;;;;;;;;;;;18.80;87.40;;;;;;5056307;28;19916;-77
2022/05/07 10:47:54;;;;;;;;;;;19.00;86.70;;;;;;5089723;28;19908;-76
2022/05/07 10:50:23;;;;;;;;;;;19.20;86.10;;;;;;5073111;28;19995;-78
2022/05/07 10:52:56;;;;;;;;;;;19.50;86.50;;;;;;5072002;28;19912;-75
2022/05/07 10:55:26;;;;;;;;;;;19.80;86.80;;;;;;5090032;28;19987;-76
2022/05/07 10:57:52;;;;;;;;;;;20.00;86.90;;;;;;5090524;28;19912;-75
2022/05/07 11:00:18;;;;;;;;;;;20.10;87.20;;;;;;5090469;28;19916;-75
2022/05/07 11:02:45;;;;;;;;;;;20.10;87.80;;;;;;5089599;28;19919;-78
2022/05/07 11:05:15;;;;;;;;;;;20.30;88.80;;;;;;5089972;28;20370;-76
2022/05/07 11:07:40;;;;;;;;;;;20.70;89.10;;;;;;5073044;28;19908;-77
2022/05/07 11:10:06;;;;;;;;;;;22.00;90.40;;;;;;5072314;28;20223;-78
2022/05/07 11:12:32;;;;;;;;;;;23.80;90.50;;;;;;5072706;28;20002;-75
2022/05/07 11:14:58;;;;;;;;;;;24.80;89.30;;;;;;5089964;28;19933;-78
2022/05/07 11:17:28;;;;;;;;;;;25.30;89.40;;;;;;5089716;28;19912;-69
2022/05/07 11:19:53;;;;;;;;;;;25.70;86.60;;;;;;5086779;28;19916;-65
2022/05/07 11:22:23;;;;;;;;;;;25.50;84.60;;;;;;5087409;28;20253;-65
2022/05/07 11:24:56;;;;;;;;;;;25.30;83.90;;;;;;5087393;28;19961;-69
2022/05/07 11:27:21;;;;;;;;;;;25.10;84.10;;;;;;5088007;28;20301;-68
2022/05/07 11:29:47;;;;;;;;;;;24.70;82.80;;;;;;5090347;28;19923;-77
2022/05/07 11:32:13;;;;;;;;;;;24.40;83.00;;;;;;5090328;28;19942;-76
2022/05/07 11:34:39;;;;;;;;;;;24.20;83.60;;;;;;5072534;28;19916;-76
2022/05/07 11:37:12;;;;;;;;;;;24.20;83.60;;;;;;5057400;28;20007;-76
2022/05/07 11:39:51;;;;;;;;;;;24.30;83.70;;;;;;5072324;28;19917;-75
2022/05/07 11:42:37;;;;;;;;;;;25.00;85.40;;;;;;5072024;28;19948;-75
2022/05/07 11:45:26;;;;;;;;;;;25.90;85.30;;;;;;5082081;28;19908;-75
2022/05/07 11:47:59;;;;;;;;;;;25.80;84.70;;;;;;5088476;28;19909;-75
2022/05/07 11:50:29;;;;;;;;;;;25.60;85.10;;;;;;5088852;28;19970;-75
2022/05/07 11:52:55;;;;;;;;;;;25.40;85.40;;;;;;5070123;28;19916;-76
2022/05/07 11:55:25;;;;;;;;;;;25.00;84.70;;;;;;5088911;28;19918;-75
2022/05/07 11:57:51;;;;;;;;;;;24.30;85.00;;;;;;5070327;28;19908;-75
2022/05/07 12:00:18;;;;;;;;;;;23.80;85.60;;;;;;5091851;28;19915;-75
2022/05/07 12:02:50;;;;;;;;;;;23.60;85.70;;;;;;5092963;28;19927;-76
2022/05/07 12:05:16;;;;;;;;;;;23.60;85.60;;;;;;5094699;28;19947;-75
2022/05/07 12:07:45;;;;;;;;;;;24.00;86.70;;;;;;5093231;28;19920;-76
2022/05/07 12:10:10;;;;;;;;;;;24.40;86.20;;;;;;5094806;28;19979;-75
2022/05/07 12:12:36;;;;;;;;;;;24.40;85.40;;;;;;5074570;28;20315;-77
2022/05/07 12:15:02;;;;;;;;;;;24.40;84.10;;;;;;5076307;28;19908;-76
2022/05/07 12:20:12;;;;;;;;;;;24.90;85.40;;;;;;5092763;28;19915;-76
2022/05/07 12:30:50;;;;;;;;;;;27.30;87.20;;;;;;5072212;28;19923;-77
2022/05/07 12:33:16;;;;;;;;;;;27.30;86.70;;;;;;5053099;28;20007;-75
2022/05/07 12:35:41;;;;;;;;;;;27.10;86.50;;;;;;5071939;28;19939;-75
2022/05/07 12:38:07;;;;;;;;;;;27.30;85.60;;;;;;5071817;28;19912;-75
2022/05/07 12:40:32;;;;;;;;;;;27.80;86.00;;;;;;5071371;28;19913;-76
2022/05/07 12:42:59;;;;;;;;;;;28.30;84.30;;;;;;5053033;28;20019;-76
2022/05/07 12:45:25;;;;;;;;;;;28.60;84.80;;;;;;5071197;28;19920;-75
2022/05/07 12:47:50;;;;;;;;;;;29.00;84.30;;;;;;5071409;28;19912;-74
2022/05/07 12:50:16;;;;;;;;;;;29.00;83.00;;;;;;5070021;28;20418;-76
2022/05/07 12:52:41;;;;;;;;;;;28.50;82.70;;;;;;5071289;28;19908;-76
2022/05/07 12:55:07;;;;;;;;;;;27.80;82.10;;;;;;5071579;28;19961;-77
2022/05/07 12:57:33;;;;;;;;;;;26.90;82.50;;;;;;5071012;28;19923;-75
2022/05/07 12:59:58;;;;;;;;;;;26.60;84.60;;;;;;5071227;28;20414;-75
2022/05/07 13:02:24;;;;;;;;;;;26.80;85.00;;;;;;5071269;28;19945;-77
2022/05/07 13:04:49;;;;;;;;;;;27.20;82.70;;;;;;5052867;28;19936;-76
2022/05/07 13:07:15;;;;;;;;;;;27.20;82.60;;;;;;5071158;28;19916;-73
2022/05/07 13:09:41;;;;;;;;;;;27.20;82.70;;;;;;5070531;28;20331;-75
2022/05/07 13:12:07;;;;;;;;;;;27.20;82.90;;;;;;5070966;28;20327;-75
2022/05/07 13:14:35;;;;;;;;;;;26.70;81.20;;;;;;5071101;28;19912;-75
2022/05/07 13:17:01;;;;;;;;;;;26.10;79.70;;;;;;5070596;28;19913;-76
2022/05/07 13:19:27;;;;;;;;;;;25.40;78.10;;;;;;5069716;28;19912;-74
2022/05/07 13:21:54;;;;;;;;;;;24.80;78.20;;;;;;5052806;28;19912;-75
2022/05/07 13:24:19;;;;;;;;;;;24.20;78.80;;;;;;5070092;28;20261;-76
2022/05/07 13:26:45;;;;;;;;;;;23.80;78.10;;;;;;5053020;28;19909;-73
2022/05/07 13:29:12;;;;;;;;;;;23.50;78.00;;;;;;5084009;28;20043;-75
2022/05/07 13:31:38;;;;;;;;;;;23.20;77.70;;;;;;5090281;28;19919;-74
2022/05/07 13:34:06;;;;;;;;;;;22.90;78.10;;;;;;5090034;28;20402;-74
2022/05/07 13:36:38;;;;;;;;;;;22.50;78.40;;;;;;5071393;28;20368;-74
2022/05/07 13:39:04;;;;;;;;;;;22.20;78.60;;;;;;5090609;28;19921;-77
2022/05/07 13:41:35;;;;;;;;;;;21.90;79.60;;;;;;5090585;28;20369;-77
2022/05/07 13:44:02;;;;;;;;;;;21.80;79.40;;;;;;5055472;28;19932;-76
2022/05/07 13:46:33;;;;;;;;;;;22.00;79.60;;;;;;5072147;28;19987;-76
2022/05/07 13:48:59;;;;;;;;;;;22.10;79.00;;;;;;5056510;28;20008;-76
2022/05/07 13:51:25;;;;;;;;;;;22.10;78.10;;;;;;5090046;28;19916;-78
2022/05/07 13:53:51;;;;;;;;;;;22.20;78.10;;;;;;5056020;28;19957;-76
2022/05/07 13:56:17;;;;;;;;;;;22.10;77.90;;;;;;5090515;28;20005;-77
2022/05/07 13:58:43;;;;;;;;;;;22.00;76.70;;;;;;5090473;28;19927;-78
2022/05/07 14:01:09;;;;;;;;;;;21.80;76.80;;;;;;5071754;28;19912;-77
2022/05/07 14:03:34;;;;;;;;;;;21.70;76.90;;;;;;5090467;28;20007;-77
2022/05/07 14:06:00;;;;;;;;;;;21.50;76.40;;;;;;5072538;28;19916;-77
2022/05/07 14:08:27;;;;;;;;;;;21.30;76.60;;;;;;5090416;28;19941;-77
2022/05/07 14:10:52;;;;;;;;;;;21.10;77.00;;;;;;5090597;28;19913;-77
2022/05/07 14:13:18;;;;;;;;;;;21.10;76.80;;;;;;5090495;28;19912;-77
2022/05/07 14:15:44;;;;;;;;;;;21.00;76.90;;;;;;5090660;28;20404;-77
2022/05/07 14:18:10;;;;;;;;;;;20.70;76.80;;;;;;5089726;28;19913;-76
2022/05/07 14:20:36;;;;;;;;;;;20.60;77.00;;;;;;5071495;28;20273;-76
2022/05/07 14:23:02;;;;;;;;;;;20.50;77.10;;;;;;5070523;28;19958;-76
2022/05/07 14:25:29;;;;;;;;;;;20.40;77.30;;;;;;5089484;28;19912;-76
2022/05/07 14:27:54;;;;;;;;;;;20.40;77.20;;;;;;5089917;28;19940;-76
2022/05/07 14:30:20;;;;;;;;;;;20.30;76.80;;;;;;5071711;28;19958;-76
2022/05/07 14:32:46;;;;;;;;;;;20.20;77.00;;;;;;5089727;28;20326;-78
2022/05/07 14:35:11;;;;;;;;;;;20.20;77.10;;;;;;5071709;28;19912;-75
2022/05/07 14:37:37;;;;;;;;;;;20.10;77.30;;;;;;5089563;28;19940;-76
2022/05/07 14:40:28;;;;;;;;;;;20.10;77.50;;;;;;5071396;28;20354;-76
2022/05/07 14:42:49;;;;;;;;;;;20.10;77.60;;;;;;5089301;28;19920;-76
2022/05/07 14:45:14;;;;;;;;;;;20.20;77.50;;;;;;5089453;28;20407;-74
2022/05/07 14:47:40;;;;;;;;;;;20.30;77.50;;;;;;5089560;28;19953;-76
2022/05/07 14:50:06;;;;;;;;;;;20.20;77.20;;;;;;5089756;28;19944;-77
2022/05/07 14:52:32;;;;;;;;;;;20.30;77.70;;;;;;5089454;28;19912;-77
2022/05/07 14:54:57;;;;;;;;;;;20.30;77.30;;;;;;5089361;28;19912;-78